Inglewood, Florida
Current Conditions -  °F | °C
As of 4:53 PM on Thursday 23 Oct 2014 (Local Time) from KPGD Reporting Station
Scattered Clouds Scattered Clouds  
Wind Chill: 29°   Ceiling: Unl
Heat Index: 30°   Visibility: 10mi
Dew Point: 18°   Wind: 12mph
Humidity: 51%   Direction: 70°ENE
Pressure: 29.89"   Gusts: NA
Location:  26.9253°N, 82.3009°W
Report Text: KPGD 232053Z 07010KT 10SM SCT047 29/18 A2989 RMK AO2 SLP123 T02890178 56016
Loading
Personal Weather Stations






























Interactive Weather Map
Tropical Storm Tracking
New forecast layout! Learn more

10-Day Weather Forecast

Advertisements
Track Severe Weather on mobile